sensor_id;sensor_type;location;lat;lon;timestamp;P1;durP1;ratioP1;P2;durP2;ratioP2
17398;SDS011;8817;48.170;8.592;2023-06-22T00:00:46;11.18;;;8.65;;
17398;SDS011;8817;48.170;8.592;2023-06-22T00:03:15;10.93;;;8.60;;
17398;SDS011;8817;48.170;8.592;2023-06-22T00:05:43;9.93;;;8.93;;
17398;SDS011;8817;48.170;8.592;2023-06-22T00:08:10;9.82;;;8.70;;
17398;SDS011;8817;48.170;8.592;2023-06-22T00:10:37;9.15;;;8.35;;
17398;SDS011;8817;48.170;8.592;2023-06-22T00:13:04;9.40;;;8.60;;
17398;SDS011;8817;48.170;8.592;2023-06-22T00:15:31;9.52;;;8.57;;
17398;SDS011;8817;48.170;8.592;2023-06-22T00:17:58;11.90;;;8.60;;
17398;SDS011;8817;48.170;8.592;2023-06-22T00:20:27;9.93;;;8.70;;
17398;SDS011;8817;48.170;8.592;2023-06-22T00:22:54;11.85;;;8.70;;
17398;SDS011;8817;48.170;8.592;2023-06-22T00:25:21;9.20;;;8.40;;
17398;SDS011;8817;48.170;8.592;2023-06-22T00:27:48;9.45;;;8.75;;
17398;SDS011;8817;48.170;8.592;2023-06-22T00:30:15;10.27;;;8.80;;
17398;SDS011;8817;48.170;8.592;2023-06-22T00:32:42;10.85;;;9.30;;
17398;SDS011;8817;48.170;8.592;2023-06-22T00:35:10;12.27;;;8.57;;
17398;SDS011;8817;48.170;8.592;2023-06-22T00:37:39;9.48;;;8.63;;
17398;SDS011;8817;48.170;8.592;2023-06-22T00:40:07;12.60;;;9.07;;
17398;SDS011;8817;48.170;8.592;2023-06-22T00:42:36;10.20;;;9.20;;
17398;SDS011;8817;48.170;8.592;2023-06-22T00:45:03;10.05;;;8.90;;
17398;SDS011;8817;48.170;8.592;2023-06-22T00:47:31;10.70;;;9.60;;
17398;SDS011;8817;48.170;8.592;2023-06-22T00:50:00;10.48;;;9.38;;
17398;SDS011;8817;48.170;8.592;2023-06-22T00:52:27;10.35;;;9.40;;
17398;SDS011;8817;48.170;8.592;2023-06-22T00:54:57;10.40;;;9.30;;
17398;SDS011;8817;48.170;8.592;2023-06-22T00:57:26;10.00;;;9.00;;
17398;SDS011;8817;48.170;8.592;2023-06-22T00:59:54;12.23;;;9.45;;
17398;SDS011;8817;48.170;8.592;2023-06-22T01:02:21;10.25;;;9.18;;
17398;SDS011;8817;48.170;8.592;2023-06-22T01:04:48;13.93;;;9.63;;
17398;SDS011;8817;48.170;8.592;2023-06-22T01:07:17;11.80;;;9.60;;
17398;SDS011;8817;48.170;8.592;2023-06-22T01:09:54;12.50;;;9.80;;
17398;SDS011;8817;48.170;8.592;2023-06-22T01:12:27;11.05;;;9.95;;
17398;SDS011;8817;48.170;8.592;2023-06-22T01:15:01;11.65;;;9.40;;
17398;SDS011;8817;48.170;8.592;2023-06-22T01:17:35;10.52;;;9.38;;
17398;SDS011;8817;48.170;8.592;2023-06-22T01:20:02;12.50;;;9.80;;
17398;SDS011;8817;48.170;8.592;2023-06-22T01:22:32;10.95;;;9.85;;
17398;SDS011;8817;48.170;8.592;2023-06-22T01:25:07;12.48;;;10.02;;
17398;SDS011;8817;48.170;8.592;2023-06-22T01:27:39;10.48;;;9.48;;
17398;SDS011;8817;48.170;8.592;2023-06-22T01:30:20;12.18;;;9.88;;
17398;SDS011;8817;48.170;8.592;2023-06-22T01:32:51;13.07;;;9.77;;
17398;SDS011;8817;48.170;8.592;2023-06-22T01:35:19;10.80;;;9.77;;
17398;SDS011;8817;48.170;8.592;2023-06-22T01:37:47;13.68;;;10.00;;
17398;SDS011;8817;48.170;8.592;2023-06-22T01:40:15;10.70;;;9.75;;
17398;SDS011;8817;48.170;8.592;2023-06-22T01:42:42;14.75;;;9.90;;
17398;SDS011;8817;48.170;8.592;2023-06-22T01:45:10;12.35;;;9.70;;
17398;SDS011;8817;48.170;8.592;2023-06-22T01:47:39;11.35;;;9.80;;
17398;SDS011;8817;48.170;8.592;2023-06-22T01:50:07;14.23;;;9.75;;
17398;SDS011;8817;48.170;8.592;2023-06-22T01:52:35;10.68;;;9.25;;
17398;SDS011;8817;48.170;8.592;2023-06-22T01:55:03;11.02;;;9.63;;
17398;SDS011;8817;48.170;8.592;2023-06-22T01:57:31;11.00;;;9.90;;
17398;SDS011;8817;48.170;8.592;2023-06-22T01:59:59;12.50;;;10.10;;
17398;SDS011;8817;48.170;8.592;2023-06-22T02:02:28;14.15;;;10.50;;
17398;SDS011;8817;48.170;8.592;2023-06-22T02:05:03;11.27;;;9.88;;
17398;SDS011;8817;48.170;8.592;2023-06-22T02:07:32;10.77;;;9.68;;
17398;SDS011;8817;48.170;8.592;2023-06-22T02:10:05;10.98;;;9.85;;
17398;SDS011;8817;48.170;8.592;2023-06-22T02:12:33;12.00;;;10.27;;
17398;SDS011;8817;48.170;8.592;2023-06-22T02:15:02;10.73;;;9.65;;
17398;SDS011;8817;48.170;8.592;2023-06-22T02:17:30;10.90;;;9.85;;
17398;SDS011;8817;48.170;8.592;2023-06-22T02:19:58;11.27;;;9.73;;
17398;SDS011;8817;48.170;8.592;2023-06-22T02:22:28;13.25;;;9.82;;
17398;SDS011;8817;48.170;8.592;2023-06-22T02:24:55;12.50;;;9.90;;
17398;SDS011;8817;48.170;8.592;2023-06-22T02:27:22;10.52;;;9.43;;
17398;SDS011;8817;48.170;8.592;2023-06-22T02:29:49;12.45;;;10.00;;
17398;SDS011;8817;48.170;8.592;2023-06-22T02:32:16;12.50;;;10.10;;
17398;SDS011;8817;48.170;8.592;2023-06-22T02:34:43;12.52;;;10.02;;
17398;SDS011;8817;48.170;8.592;2023-06-22T02:37:12;11.55;;;10.35;;
17398;SDS011;8817;48.170;8.592;2023-06-22T02:39:41;10.52;;;9.52;;
17398;SDS011;8817;48.170;8.592;2023-06-22T02:42:08;10.65;;;9.63;;
17398;SDS011;8817;48.170;8.592;2023-06-22T02:44:35;11.27;;;9.93;;
17398;SDS011;8817;48.170;8.592;2023-06-22T02:47:02;12.27;;;9.68;;
17398;SDS011;8817;48.170;8.592;2023-06-22T02:49:29;11.15;;;10.05;;
17398;SDS011;8817;48.170;8.592;2023-06-22T02:51:56;13.63;;;10.07;;
17398;SDS011;8817;48.170;8.592;2023-06-22T02:54:23;10.98;;;9.88;;
17398;SDS011;8817;48.170;8.592;2023-06-22T02:56:51;10.68;;;9.68;;
17398;SDS011;8817;48.170;8.592;2023-06-22T02:59:18;11.27;;;10.15;;
17398;SDS011;8817;48.170;8.592;2023-06-22T03:01:48;12.75;;;10.38;;
17398;SDS011;8817;48.170;8.592;2023-06-22T03:04:16;11.38;;;10.32;;
17398;SDS011;8817;48.170;8.592;2023-06-22T03:06:44;11.75;;;10.07;;
17398;SDS011;8817;48.170;8.592;2023-06-22T03:09:16;11.80;;;10.20;;
17398;SDS011;8817;48.170;8.592;2023-06-22T03:11:43;11.27;;;10.18;;
17398;SDS011;8817;48.170;8.592;2023-06-22T03:14:11;11.10;;;9.95;;
17398;SDS011;8817;48.170;8.592;2023-06-22T03:16:38;13.93;;;10.45;;
17398;SDS011;8817;48.170;8.592;2023-06-22T03:19:06;13.93;;;10.43;;
17398;SDS011;8817;48.170;8.592;2023-06-22T03:21:33;11.65;;;10.25;;
17398;SDS011;8817;48.170;8.592;2023-06-22T03:24:00;11.18;;;10.07;;
17398;SDS011;8817;48.170;8.592;2023-06-22T03:26:27;14.27;;;10.43;;
17398;SDS011;8817;48.170;8.592;2023-06-22T03:28:54;11.55;;;10.20;;
17398;SDS011;8817;48.170;8.592;2023-06-22T03:31:23;11.52;;;10.45;;
17398;SDS011;8817;48.170;8.592;2023-06-22T03:33:50;13.50;;;10.73;;
17398;SDS011;8817;48.170;8.592;2023-06-22T03:36:17;11.52;;;10.32;;
17398;SDS011;8817;48.170;8.592;2023-06-22T03:38:44;11.13;;;10.13;;
17398;SDS011;8817;48.170;8.592;2023-06-22T03:41:11;11.45;;;10.35;;
17398;SDS011;8817;48.170;8.592;2023-06-22T03:43:38;13.93;;;10.77;;
17398;SDS011;8817;48.170;8.592;2023-06-22T03:46:05;12.45;;;11.13;;
17398;SDS011;8817;48.170;8.592;2023-06-22T03:48:34;12.18;;;10.98;;
17398;SDS011;8817;48.170;8.592;2023-06-22T03:51:01;11.93;;;10.80;;
17398;SDS011;8817;48.170;8.592;2023-06-22T03:53:28;11.68;;;10.55;;
17398;SDS011;8817;48.170;8.592;2023-06-22T03:55:55;11.98;;;10.88;;
17398;SDS011;8817;48.170;8.592;2023-06-22T03:58:22;11.63;;;10.48;;
17398;SDS011;8817;48.170;8.592;2023-06-22T04:00:50;12.57;;;11.07;;
17398;SDS011;8817;48.170;8.592;2023-06-22T04:03:18;12.45;;;11.15;;
17398;SDS011;8817;48.170;8.592;2023-06-22T04:05:47;12.43;;;10.93;;
17398;SDS011;8817;48.170;8.592;2023-06-22T04:08:14;13.00;;;11.20;;
17398;SDS011;8817;48.170;8.592;2023-06-22T04:10:41;11.90;;;10.75;;
17398;SDS011;8817;48.170;8.592;2023-06-22T04:13:08;11.80;;;10.57;;
17398;SDS011;8817;48.170;8.592;2023-06-22T04:15:35;14.07;;;11.13;;
17398;SDS011;8817;48.170;8.592;2023-06-22T04:18:02;15.05;;;11.00;;
17398;SDS011;8817;48.170;8.592;2023-06-22T04:20:29;13.73;;;10.98;;
17398;SDS011;8817;48.170;8.592;2023-06-22T04:22:58;12.50;;;11.27;;
17398;SDS011;8817;48.170;8.592;2023-06-22T04:25:25;13.18;;;11.20;;
17398;SDS011;8817;48.170;8.592;2023-06-22T04:27:52;12.10;;;10.88;;
17398;SDS011;8817;48.170;8.592;2023-06-22T04:30:18;15.68;;;11.05;;
17398;SDS011;8817;48.170;8.592;2023-06-22T04:32:45;11.98;;;10.65;;
17398;SDS011;8817;48.170;8.592;2023-06-22T04:35:21;12.05;;;10.85;;
17398;SDS011;8817;48.170;8.592;2023-06-22T04:37:48;11.90;;;10.68;;
17398;SDS011;8817;48.170;8.592;2023-06-22T04:40:21;12.07;;;10.80;;
17398;SDS011;8817;48.170;8.592;2023-06-22T04:42:48;12.35;;;11.10;;
17398;SDS011;8817;48.170;8.592;2023-06-22T04:45:18;12.38;;;11.07;;
17398;SDS011;8817;48.170;8.592;2023-06-22T04:47:45;11.80;;;10.60;;
17398;SDS011;8817;48.170;8.592;2023-06-22T04:50:12;14.02;;;10.88;;
17398;SDS011;8817;48.170;8.592;2023-06-22T04:52:39;11.68;;;10.55;;
17398;SDS011;8817;48.170;8.592;2023-06-22T04:55:06;12.23;;;10.90;;
17398;SDS011;8817;48.170;8.592;2023-06-22T04:57:35;11.80;;;10.60;;
17398;SDS011;8817;48.170;8.592;2023-06-22T05:00:05;14.75;;;11.23;;
17398;SDS011;8817;48.170;8.592;2023-06-22T05:02:37;12.13;;;10.93;;
17398;SDS011;8817;48.170;8.592;2023-06-22T05:05:04;12.43;;;10.93;;
17398;SDS011;8817;48.170;8.592;2023-06-22T05:07:32;12.05;;;10.88;;
17398;SDS011;8817;48.170;8.592;2023-06-22T05:09:59;12.10;;;10.90;;
17398;SDS011;8817;48.170;8.592;2023-06-22T05:12:27;12.25;;;10.93;;
17398;SDS011;8817;48.170;8.592;2023-06-22T05:14:56;11.60;;;10.50;;
17398;SDS011;8817;48.170;8.592;2023-06-22T05:17:23;12.07;;;10.88;;
17398;SDS011;8817;48.170;8.592;2023-06-22T05:19:50;11.93;;;10.52;;
17398;SDS011;8817;48.170;8.592;2023-06-22T05:22:17;12.73;;;11.00;;
17398;SDS011;8817;48.170;8.592;2023-06-22T05:24:44;11.88;;;10.70;;
17398;SDS011;8817;48.170;8.592;2023-06-22T05:27:11;14.13;;;11.32;;
17398;SDS011;8817;48.170;8.592;2023-06-22T05:29:39;14.38;;;11.25;;
17398;SDS011;8817;48.170;8.592;2023-06-22T05:32:09;12.50;;;11.18;;
17398;SDS011;8817;48.170;8.592;2023-06-22T05:34:35;11.65;;;10.50;;
17398;SDS011;8817;48.170;8.592;2023-06-22T05:37:03;11.63;;;10.50;;
17398;SDS011;8817;48.170;8.592;2023-06-22T05:39:31;13.65;;;11.70;;
17398;SDS011;8817;48.170;8.592;2023-06-22T05:41:58;12.27;;;10.95;;
17398;SDS011;8817;48.170;8.592;2023-06-22T05:44:24;12.73;;;11.40;;
17398;SDS011;8817;48.170;8.592;2023-06-22T05:46:51;12.65;;;11.35;;
17398;SDS011;8817;48.170;8.592;2023-06-22T05:49:19;12.25;;;10.95;;
17398;SDS011;8817;48.170;8.592;2023-06-22T05:51:47;13.20;;;11.10;;
17398;SDS011;8817;48.170;8.592;2023-06-22T05:54:14;13.75;;;11.35;;
17398;SDS011;8817;48.170;8.592;2023-06-22T05:56:43;12.20;;;10.90;;
17398;SDS011;8817;48.170;8.592;2023-06-22T05:59:10;12.20;;;10.77;;
17398;SDS011;8817;48.170;8.592;2023-06-22T06:01:37;11.75;;;10.55;;
17398;SDS011;8817;48.170;8.592;2023-06-22T06:04:05;14.13;;;10.75;;
17398;SDS011;8817;48.170;8.592;2023-06-22T06:06:34;12.32;;;11.10;;
17398;SDS011;8817;48.170;8.592;2023-06-22T06:09:02;16.42;;;11.10;;
17398;SDS011;8817;48.170;8.592;2023-06-22T06:11:29;11.80;;;10.43;;
17398;SDS011;8817;48.170;8.592;2023-06-22T06:13:56;14.13;;;10.70;;
17398;SDS011;8817;48.170;8.592;2023-06-22T06:16:23;11.70;;;10.48;;
17398;SDS011;8817;48.170;8.592;2023-06-22T06:18:49;11.95;;;10.75;;
17398;SDS011;8817;48.170;8.592;2023-06-22T06:21:18;11.75;;;10.65;;
17398;SDS011;8817;48.170;8.592;2023-06-22T06:23:46;10.93;;;9.98;;
17398;SDS011;8817;48.170;8.592;2023-06-22T06:26:13;11.98;;;10.88;;
17398;SDS011;8817;48.170;8.592;2023-06-22T06:28:41;11.30;;;10.32;;
17398;SDS011;8817;48.170;8.592;2023-06-22T06:31:08;11.10;;;10.13;;
17398;SDS011;8817;48.170;8.592;2023-06-22T06:33:37;11.80;;;10.48;;
17398;SDS011;8817;48.170;8.592;2023-06-22T06:36:04;11.75;;;10.55;;
17398;SDS011;8817;48.170;8.592;2023-06-22T06:38:33;12.93;;;10.13;;
17398;SDS011;8817;48.170;8.592;2023-06-22T06:41:01;12.80;;;10.60;;
17398;SDS011;8817;48.170;8.592;2023-06-22T06:43:28;11.02;;;10.05;;
17398;SDS011;8817;48.170;8.592;2023-06-22T06:45:55;12.18;;;10.45;;
17398;SDS011;8817;48.170;8.592;2023-06-22T06:48:22;12.40;;;10.90;;
17398;SDS011;8817;48.170;8.592;2023-06-22T06:50:49;11.63;;;10.55;;
17398;SDS011;8817;48.170;8.592;2023-06-22T06:53:16;16.50;;;10.43;;
17398;SDS011;8817;48.170;8.592;2023-06-22T06:55:43;13.82;;;10.40;;
17398;SDS011;8817;48.170;8.592;2023-06-22T06:58:12;10.98;;;9.95;;
17398;SDS011;8817;48.170;8.592;2023-06-22T07:00:40;11.10;;;9.65;;
17398;SDS011;8817;48.170;8.592;2023-06-22T07:03:06;13.23;;;10.80;;
17398;SDS011;8817;48.170;8.592;2023-06-22T07:05:34;11.45;;;10.48;;
17398;SDS011;8817;48.170;8.592;2023-06-22T07:08:01;12.07;;;10.52;;
17398;SDS011;8817;48.170;8.592;2023-06-22T07:10:28;16.20;;;10.60;;
17398;SDS011;8817;48.170;8.592;2023-06-22T07:12:55;11.63;;;10.45;;
17398;SDS011;8817;48.170;8.592;2023-06-22T07:15:24;14.43;;;10.30;;
17398;SDS011;8817;48.170;8.592;2023-06-22T07:17:51;14.40;;;11.02;;
17398;SDS011;8817;48.170;8.592;2023-06-22T07:20:17;12.23;;;10.55;;
17398;SDS011;8817;48.170;8.592;2023-06-22T07:22:45;13.80;;;10.48;;
17398;SDS011;8817;48.170;8.592;2023-06-22T07:25:12;11.15;;;10.18;;
17398;SDS011;8817;48.170;8.592;2023-06-22T07:27:44;11.55;;;10.35;;
17398;SDS011;8817;48.170;8.592;2023-06-22T07:30:12;11.20;;;10.20;;
17398;SDS011;8817;48.170;8.592;2023-06-22T07:32:41;12.10;;;10.10;;
17398;SDS011;8817;48.170;8.592;2023-06-22T07:35:08;12.35;;;10.25;;
17398;SDS011;8817;48.170;8.592;2023-06-22T07:37:35;11.43;;;10.07;;
17398;SDS011;8817;48.170;8.592;2023-06-22T07:40:03;11.45;;;10.35;;
17398;SDS011;8817;48.170;8.592;2023-06-22T07:42:31;12.20;;;10.48;;
17398;SDS011;8817;48.170;8.592;2023-06-22T07:44:58;11.27;;;10.18;;
17398;SDS011;8817;48.170;8.592;2023-06-22T07:47:26;11.43;;;10.25;;
17398;SDS011;8817;48.170;8.592;2023-06-22T07:49:55;15.18;;;10.70;;
17398;SDS011;8817;48.170;8.592;2023-06-22T07:52:23;11.27;;;10.23;;
17398;SDS011;8817;48.170;8.592;2023-06-22T07:54:50;12.15;;;9.77;;
17398;SDS011;8817;48.170;8.592;2023-06-22T07:57:17;11.43;;;10.32;;
17398;SDS011;8817;48.170;8.592;2023-06-22T07:59:44;12.40;;;10.57;;
17398;SDS011;8817;48.170;8.592;2023-06-22T08:02:11;11.27;;;10.18;;
17398;SDS011;8817;48.170;8.592;2023-06-22T08:04:38;10.77;;;9.80;;
17398;SDS011;8817;48.170;8.592;2023-06-22T08:07:07;11.45;;;10.38;;
17398;SDS011;8817;48.170;8.592;2023-06-22T08:09:34;11.60;;;10.40;;
17398;SDS011;8817;48.170;8.592;2023-06-22T08:12:02;12.77;;;10.38;;
17398;SDS011;8817;48.170;8.592;2023-06-22T08:14:29;15.98;;;10.48;;
17398;SDS011;8817;48.170;8.592;2023-06-22T08:16:56;11.18;;;10.07;;
17398;SDS011;8817;48.170;8.592;2023-06-22T08:19:23;10.95;;;9.88;;
17398;SDS011;8817;48.170;8.592;2023-06-22T08:21:50;11.00;;;10.00;;
17398;SDS011;8817;48.170;8.592;2023-06-22T08:24:18;11.45;;;10.10;;
17398;SDS011;8817;48.170;8.592;2023-06-22T08:26:45;12.02;;;10.10;;
17398;SDS011;8817;48.170;8.592;2023-06-22T08:29:12;11.48;;;10.30;;
17398;SDS011;8817;48.170;8.592;2023-06-22T08:31:39;13.15;;;10.93;;
17398;SDS011;8817;48.170;8.592;2023-06-22T08:34:06;13.30;;;10.02;;
17398;SDS011;8817;48.170;8.592;2023-06-22T08:36:33;11.55;;;10.25;;
17398;SDS011;8817;48.170;8.592;2023-06-22T08:39:06;10.98;;;9.88;;
17398;SDS011;8817;48.170;8.592;2023-06-22T08:41:34;10.65;;;9.55;;
17398;SDS011;8817;48.170;8.592;2023-06-22T08:44:01;11.48;;;10.23;;
17398;SDS011;8817;48.170;8.592;2023-06-22T08:46:29;11.05;;;10.05;;
17398;SDS011;8817;48.170;8.592;2023-06-22T08:48:58;12.75;;;10.13;;
17398;SDS011;8817;48.170;8.592;2023-06-22T08:51:26;11.38;;;10.38;;
17398;SDS011;8817;48.170;8.592;2023-06-22T08:53:53;10.73;;;9.73;;
17398;SDS011;8817;48.170;8.592;2023-06-22T08:56:20;11.35;;;10.15;;
17398;SDS011;8817;48.170;8.592;2023-06-22T08:58:48;11.07;;;9.98;;
17398;SDS011;8817;48.170;8.592;2023-06-22T09:01:15;11.55;;;9.88;;
17398;SDS011;8817;48.170;8.592;2023-06-22T09:03:42;11.27;;;10.20;;
17398;SDS011;8817;48.170;8.592;2023-06-22T09:06:09;10.98;;;9.82;;
17398;SDS011;8817;48.170;8.592;2023-06-22T09:08:36;11.73;;;10.30;;
17398;SDS011;8817;48.170;8.592;2023-06-22T09:11:03;10.80;;;9.70;;
17398;SDS011;8817;48.170;8.592;2023-06-22T09:13:30;10.60;;;9.52;;
17398;SDS011;8817;48.170;8.592;2023-06-22T09:15:59;11.05;;;9.85;;
17398;SDS011;8817;48.170;8.592;2023-06-22T09:18:26;12.07;;;10.15;;
17398;SDS011;8817;48.170;8.592;2023-06-22T09:20:53;11.18;;;9.85;;
17398;SDS011;8817;48.170;8.592;2023-06-22T09:23:19;11.63;;;10.00;;
17398;SDS011;8817;48.170;8.592;2023-06-22T09:25:46;11.13;;;10.05;;
17398;SDS011;8817;48.170;8.592;2023-06-22T09:28:13;12.35;;;9.98;;
17398;SDS011;8817;48.170;8.592;2023-06-22T09:30:42;12.88;;;10.35;;
17398;SDS011;8817;48.170;8.592;2023-06-22T09:33:11;10.70;;;9.80;;
17398;SDS011;8817;48.170;8.592;2023-06-22T09:35:38;11.30;;;9.73;;
17398;SDS011;8817;48.170;8.592;2023-06-22T09:38:05;14.20;;;9.65;;
17398;SDS011;8817;48.170;8.592;2023-06-22T09:40:31;10.57;;;9.48;;
17398;SDS011;8817;48.170;8.592;2023-06-22T09:43:00;10.10;;;9.18;;
17398;SDS011;8817;48.170;8.592;2023-06-22T09:45:27;10.43;;;9.43;;
17398;SDS011;8817;48.170;8.592;2023-06-22T09:47:54;12.13;;;9.80;;
17398;SDS011;8817;48.170;8.592;2023-06-22T09:50:22;10.10;;;9.05;;
17398;SDS011;8817;48.170;8.592;2023-06-22T09:52:49;11.40;;;10.00;;
17398;SDS011;8817;48.170;8.592;2023-06-22T09:55:19;10.63;;;9.50;;
17398;SDS011;8817;48.170;8.592;2023-06-22T09:57:46;11.82;;;9.70;;
17398;SDS011;8817;48.170;8.592;2023-06-22T10:00:14;10.90;;;9.80;;
17398;SDS011;8817;48.170;8.592;2023-06-22T10:02:44;10.73;;;9.48;;
17398;SDS011;8817;48.170;8.592;2023-06-22T10:05:11;10.90;;;9.25;;
17398;SDS011;8817;48.170;8.592;2023-06-22T10:07:39;10.30;;;9.30;;
17398;SDS011;8817;48.170;8.592;2023-06-22T10:10:09;10.52;;;9.63;;
17398;SDS011;8817;48.170;8.592;2023-06-22T10:12:36;10.23;;;9.32;;
17398;SDS011;8817;48.170;8.592;2023-06-22T10:15:03;10.82;;;9.82;;
17398;SDS011;8817;48.170;8.592;2023-06-22T10:17:30;11.27;;;9.93;;
17398;SDS011;8817;48.170;8.592;2023-06-22T10:19:57;10.30;;;9.40;;
17398;SDS011;8817;48.170;8.592;2023-06-22T10:22:24;10.10;;;9.30;;
17398;SDS011;8817;48.170;8.592;2023-06-22T10:24:52;14.70;;;9.55;;
17398;SDS011;8817;48.170;8.592;2023-06-22T10:27:19;12.68;;;9.43;;
17398;SDS011;8817;48.170;8.592;2023-06-22T10:29:46;14.95;;;9.40;;
17398;SDS011;8817;48.170;8.592;2023-06-22T10:32:12;10.57;;;9.60;;
17398;SDS011;8817;48.170;8.592;2023-06-22T10:34:39;10.90;;;9.32;;
17398;SDS011;8817;48.170;8.592;2023-06-22T10:37:06;15.23;;;10.00;;
17398;SDS011;8817;48.170;8.592;2023-06-22T10:39:33;11.45;;;9.90;;
17398;SDS011;8817;48.170;8.592;2023-06-22T10:42:01;11.93;;;9.90;;
17398;SDS011;8817;48.170;8.592;2023-06-22T10:44:28;11.55;;;9.38;;
17398;SDS011;8817;48.170;8.592;2023-06-22T10:46:55;11.50;;;9.52;;
17398;SDS011;8817;48.170;8.592;2023-06-22T10:49:22;14.45;;;9.18;;
17398;SDS011;8817;48.170;8.592;2023-06-22T10:51:48;10.30;;;9.30;;
17398;SDS011;8817;48.170;8.592;2023-06-22T10:54:15;10.77;;;9.70;;
17398;SDS011;8817;48.170;8.592;2023-06-22T10:56:43;11.70;;;9.27;;
17398;SDS011;8817;48.170;8.592;2023-06-22T10:59:11;10.30;;;9.32;;
17398;SDS011;8817;48.170;8.592;2023-06-22T11:01:38;10.95;;;9.52;;
17398;SDS011;8817;48.170;8.592;2023-06-22T11:04:05;10.02;;;9.10;;
17398;SDS011;8817;48.170;8.592;2023-06-22T11:06:32;10.98;;;9.30;;
17398;SDS011;8817;48.170;8.592;2023-06-22T11:08:58;10.00;;;9.15;;
17398;SDS011;8817;48.170;8.592;2023-06-22T11:11:25;12.75;;;9.55;;
17398;SDS011;8817;48.170;8.592;2023-06-22T11:13:52;11.07;;;9.40;;
17398;SDS011;8817;48.170;8.592;2023-06-22T11:16:21;11.18;;;10.07;;
17398;SDS011;8817;48.170;8.592;2023-06-22T11:18:47;10.27;;;9.35;;
17398;SDS011;8817;48.170;8.592;2023-06-22T11:21:14;10.25;;;9.35;;
17398;SDS011;8817;48.170;8.592;2023-06-22T11:23:41;10.65;;;9.60;;
17398;SDS011;8817;48.170;8.592;2023-06-22T11:26:08;12.27;;;9.27;;
17398;SDS011;8817;48.170;8.592;2023-06-22T11:28:35;10.32;;;9.43;;
17398;SDS011;8817;48.170;8.592;2023-06-22T11:31:02;12.27;;;9.45;;
17398;SDS011;8817;48.170;8.592;2023-06-22T11:33:31;10.50;;;9.55;;
17398;SDS011;8817;48.170;8.592;2023-06-22T11:35:58;14.63;;;9.35;;
17398;SDS011;8817;48.170;8.592;2023-06-22T11:38:25;12.00;;;9.77;;
17398;SDS011;8817;48.170;8.592;2023-06-22T11:40:51;10.90;;;9.88;;
17398;SDS011;8817;48.170;8.592;2023-06-22T11:43:18;12.27;;;9.95;;
17398;SDS011;8817;48.170;8.592;2023-06-22T11:45:45;11.45;;;9.80;;
17398;SDS011;8817;48.170;8.592;2023-06-22T11:48:12;11.45;;;9.40;;
17398;SDS011;8817;48.170;8.592;2023-06-22T11:50:40;11.30;;;9.77;;
17398;SDS011;8817;48.170;8.592;2023-06-22T11:53:07;10.60;;;9.60;;
17398;SDS011;8817;48.170;8.592;2023-06-22T11:55:34;10.77;;;9.77;;
17398;SDS011;8817;48.170;8.592;2023-06-22T11:58:01;12.88;;;9.60;;
17398;SDS011;8817;48.170;8.592;2023-06-22T12:00:29;10.57;;;9.50;;
17398;SDS011;8817;48.170;8.592;2023-06-22T12:02:55;10.98;;;10.00;;
17398;SDS011;8817;48.170;8.592;2023-06-22T12:05:22;10.43;;;9.52;;
17398;SDS011;8817;48.170;8.592;2023-06-22T12:07:52;10.70;;;9.50;;
17398;SDS011;8817;48.170;8.592;2023-06-22T12:10:20;10.32;;;9.35;;
17398;SDS011;8817;48.170;8.592;2023-06-22T12:12:47;10.85;;;9.63;;
17398;SDS011;8817;48.170;8.592;2023-06-22T12:15:13;10.52;;;9.65;;
17398;SDS011;8817;48.170;8.592;2023-06-22T12:17:40;13.63;;;9.70;;
17398;SDS011;8817;48.170;8.592;2023-06-22T12:20:08;15.40;;;9.70;;
17398;SDS011;8817;48.170;8.592;2023-06-22T12:22:35;10.23;;;9.32;;
17398;SDS011;8817;48.170;8.592;2023-06-22T12:25:04;11.95;;;9.13;;
17398;SDS011;8817;48.170;8.592;2023-06-22T12:27:32;9.65;;;8.88;;
17398;SDS011;8817;48.170;8.592;2023-06-22T12:29:58;9.77;;;8.95;;
17398;SDS011;8817;48.170;8.592;2023-06-22T12:32:25;10.75;;;8.93;;
17398;SDS011;8817;48.170;8.592;2023-06-22T12:34:52;9.90;;;8.60;;
17398;SDS011;8817;48.170;8.592;2023-06-22T12:37:19;10.82;;;8.80;;
17398;SDS011;8817;48.170;8.592;2023-06-22T12:39:46;10.00;;;9.00;;
17398;SDS011;8817;48.170;8.592;2023-06-22T12:42:14;10.25;;;9.30;;
17398;SDS011;8817;48.170;8.592;2023-06-22T12:44:41;9.90;;;8.90;;
17398;SDS011;8817;48.170;8.592;2023-06-22T12:47:08;10.35;;;8.88;;
17398;SDS011;8817;48.170;8.592;2023-06-22T12:49:36;9.70;;;8.90;;
17398;SDS011;8817;48.170;8.592;2023-06-22T12:52:04;10.73;;;9.00;;
17398;SDS011;8817;48.170;8.592;2023-06-22T12:54:35;11.00;;;8.68;;
17398;SDS011;8817;48.170;8.592;2023-06-22T12:57:02;10.60;;;8.82;;
17398;SDS011;8817;48.170;8.592;2023-06-22T12:59:30;12.05;;;9.20;;
17398;SDS011;8817;48.170;8.592;2023-06-22T13:01:57;16.88;;;9.23;;
17398;SDS011;8817;48.170;8.592;2023-06-22T13:04:24;9.90;;;9.00;;
17398;SDS011;8817;48.170;8.592;2023-06-22T13:06:51;12.57;;;9.40;;
17398;SDS011;8817;48.170;8.592;2023-06-22T13:09:18;11.82;;;9.35;;
17398;SDS011;8817;48.170;8.592;2023-06-22T13:11:45;10.48;;;9.10;;
17398;SDS011;8817;48.170;8.592;2023-06-22T13:14:12;9.57;;;8.60;;
17398;SDS011;8817;48.170;8.592;2023-06-22T13:16:42;11.63;;;8.10;;
17398;SDS011;8817;48.170;8.592;2023-06-22T13:19:09;8.82;;;7.80;;
17398;SDS011;8817;48.170;8.592;2023-06-22T13:21:36;8.73;;;7.78;;
17398;SDS011;8817;48.170;8.592;2023-06-22T13:24:03;10.32;;;7.57;;
17398;SDS011;8817;48.170;8.592;2023-06-22T13:26:31;8.00;;;7.40;;
17398;SDS011;8817;48.170;8.592;2023-06-22T13:28:58;8.35;;;7.50;;
17398;SDS011;8817;48.170;8.592;2023-06-22T13:31:25;8.23;;;7.57;;
17398;SDS011;8817;48.170;8.592;2023-06-22T13:33:53;11.57;;;7.53;;
17398;SDS011;8817;48.170;8.592;2023-06-22T13:36:20;8.43;;;7.38;;
17398;SDS011;8817;48.170;8.592;2023-06-22T13:38:48;9.07;;;7.50;;
17398;SDS011;8817;48.170;8.592;2023-06-22T13:41:15;10.55;;;7.70;;
17398;SDS011;8817;48.170;8.592;2023-06-22T13:43:41;7.82;;;7.22;;
17398;SDS011;8817;48.170;8.592;2023-06-22T13:46:08;8.75;;;7.78;;
17398;SDS011;8817;48.170;8.592;2023-06-22T13:48:35;7.53;;;7.05;;
17398;SDS011;8817;48.170;8.592;2023-06-22T13:51:03;7.82;;;7.30;;
17398;SDS011;8817;48.170;8.592;2023-06-22T13:53:31;8.35;;;7.60;;
17398;SDS011;8817;48.170;8.592;2023-06-22T13:55:58;10.88;;;7.60;;
17398;SDS011;8817;48.170;8.592;2023-06-22T13:58:24;14.93;;;7.85;;
17398;SDS011;8817;48.170;8.592;2023-06-22T14:00:51;9.63;;;8.10;;
17398;SDS011;8817;48.170;8.592;2023-06-22T14:03:18;8.05;;;7.40;;
17398;SDS011;8817;48.170;8.592;2023-06-22T14:05:45;8.35;;;7.60;;
17398;SDS011;8817;48.170;8.592;2023-06-22T14:08:13;9.18;;;7.70;;
17398;SDS011;8817;48.170;8.592;2023-06-22T14:10:40;9.98;;;7.60;;
17398;SDS011;8817;48.170;8.592;2023-06-22T14:13:07;8.00;;;7.40;;
17398;SDS011;8817;48.170;8.592;2023-06-22T14:15:33;8.10;;;7.50;;
17398;SDS011;8817;48.170;8.592;2023-06-22T14:18:00;8.55;;;7.60;;
17398;SDS011;8817;48.170;8.592;2023-06-22T14:20:27;9.90;;;7.40;;
17398;SDS011;8817;48.170;8.592;2023-06-22T14:22:54;8.60;;;7.90;;
17398;SDS011;8817;48.170;8.592;2023-06-22T14:25:22;8.80;;;7.30;;
17398;SDS011;8817;48.170;8.592;2023-06-22T14:27:49;8.38;;;7.55;;
17398;SDS011;8817;48.170;8.592;2023-06-22T14:30:16;8.15;;;7.55;;
17398;SDS011;8817;48.170;8.592;2023-06-22T14:32:43;10.02;;;7.65;;
17398;SDS011;8817;48.170;8.592;2023-06-22T14:35:10;11.38;;;7.40;;
17398;SDS011;8817;48.170;8.592;2023-06-22T14:37:37;12.55;;;7.80;;
17398;SDS011;8817;48.170;8.592;2023-06-22T14:40:05;10.20;;;7.63;;
17398;SDS011;8817;48.170;8.592;2023-06-22T14:42:34;8.38;;;7.68;;
17398;SDS011;8817;48.170;8.592;2023-06-22T14:45:01;10.35;;;8.05;;